createdAt,value
2017-07-30T00:01:15.521Z,17.20
2017-07-30T00:06:02.154Z,12.23
2017-07-30T00:10:48.780Z,12.53
2017-07-30T00:15:36.187Z,11.97
2017-07-30T00:20:23.229Z,15.80
2017-07-30T00:25:09.829Z,19.90
2017-07-30T00:29:56.463Z,15.20
2017-07-30T00:34:43.088Z,12.13
2017-07-30T00:39:29.687Z,14.00
2017-07-30T00:44:16.333Z,14.03
2017-07-30T00:49:02.980Z,18.13
2017-07-30T00:53:50.679Z,14.53
2017-07-30T00:58:37.286Z,14.43
2017-07-30T01:03:23.925Z,13.40
2017-07-30T01:08:10.574Z,17.20
2017-07-30T01:12:57.945Z,15.47
2017-07-30T01:17:44.581Z,20.10
2017-07-30T01:22:31.537Z,13.47
2017-07-30T01:27:18.359Z,15.87
2017-07-30T01:32:04.988Z,10.70
2017-07-30T01:36:51.625Z,13.50
2017-07-30T01:41:38.994Z,15.07
2017-07-30T01:46:25.717Z,11.23
2017-07-30T01:51:12.447Z,13.40
2017-07-30T01:55:59.522Z,13.47
2017-07-30T02:00:46.133Z,15.40
2017-07-30T02:05:32.757Z,14.43
2017-07-30T02:10:19.504Z,12.93
2017-07-30T02:15:06.868Z,13.93
2017-07-30T02:19:53.502Z,22.50
2017-07-30T02:24:40.349Z,16.00
2017-07-30T02:29:26.972Z,14.93
2017-07-30T02:34:13.605Z,15.40
2017-07-30T02:39:00.233Z,14.97
2017-07-30T02:43:47.753Z,13.93
2017-07-30T02:48:34.364Z,15.20
2017-07-30T02:53:21.400Z,19.83
2017-07-30T02:58:08.025Z,23.57
2017-07-30T03:02:54.658Z,18.63
2017-07-30T03:07:41.478Z,18.27
2017-07-30T03:12:28.110Z,18.83
2017-07-30T03:17:15.473Z,18.70
2017-07-30T03:22:02.112Z,19.23
2017-07-30T03:26:48.733Z,23.50
2017-07-30T03:31:35.353Z,26.43
2017-07-30T03:36:22.112Z,21.43
2017-07-30T03:41:08.746Z,18.20
2017-07-30T03:45:56.136Z,20.13
2017-07-30T03:50:42.789Z,18.67
2017-07-30T03:55:29.821Z,20.23
2017-07-30T04:00:16.440Z,14.30
2017-07-30T04:05:03.031Z,14.03
2017-07-30T04:09:49.642Z,15.97
2017-07-30T04:14:36.264Z,13.10
2017-07-30T04:19:22.872Z,14.97
2017-07-30T04:24:09.517Z,12.63
2017-07-30T04:28:56.435Z,16.20
2017-07-30T04:33:43.063Z,14.73
2017-07-30T04:38:29.678Z,19.10
2017-07-30T04:43:16.317Z,19.67
2017-07-30T04:48:02.969Z,16.10
2017-07-30T04:52:50.342Z,20.13
2017-07-30T04:57:36.961Z,18.23
2017-07-30T05:02:23.761Z,23.30
2017-07-30T05:07:10.380Z,21.53
2017-07-30T05:11:57.736Z,19.47
2017-07-30T05:16:44.352Z,18.83
2017-07-30T05:21:31.047Z,13.33
2017-07-30T05:26:18.478Z,15.70
2017-07-30T05:31:06.208Z,18.23
2017-07-30T05:35:52.820Z,23.37
2017-07-30T05:40:39.464Z,12.10
2017-07-30T05:45:26.845Z,13.37
2017-07-30T05:50:13.697Z,16.33
2017-07-30T05:55:00.420Z,19.50
2017-07-30T05:59:47.353Z,21.47
2017-07-30T06:04:34.124Z,17.83
2017-07-30T06:09:20.786Z,20.93
2017-07-30T06:14:07.673Z,17.67
2017-07-30T06:18:54.342Z,16.33
2017-07-30T06:23:40.993Z,16.33
2017-07-30T06:28:28.704Z,15.40
2017-07-30T06:33:15.333Z,17.17
2017-07-30T06:38:01.995Z,17.00
2017-07-30T06:42:48.612Z,13.67
2017-07-30T06:47:35.283Z,13.83
2017-07-30T06:52:21.911Z,13.93
2017-07-30T06:57:08.536Z,14.47
2017-07-30T07:01:55.476Z,14.97
2017-07-30T07:06:42.080Z,13.73
2017-07-30T07:11:35.709Z,15.27
2017-07-30T07:16:22.358Z,11.67
2017-07-30T07:21:09.143Z,14.43
2017-07-30T07:25:56.586Z,12.23
2017-07-30T07:30:43.992Z,12.87
2017-07-30T07:35:30.594Z,13.23
2017-07-30T07:40:17.419Z,12.70
2017-07-30T07:45:04.126Z,13.97
2017-07-30T07:49:50.864Z,10.23
2017-07-30T07:54:37.753Z,16.57
2017-07-30T07:59:24.576Z,13.80
2017-07-30T08:04:11.658Z,11.10
2017-07-30T08:08:58.380Z,11.40
2017-07-30T08:13:45.171Z,8.83
2017-07-30T08:18:31.789Z,9.60
2017-07-30T08:23:18.539Z,12.40
2017-07-30T08:28:05.513Z,7.83
2017-07-30T08:32:52.225Z,15.37
2017-07-30T08:37:39.822Z,21.70
2017-07-30T08:42:26.458Z,11.13
2017-07-30T08:47:13.123Z,14.13
2017-07-30T08:51:59.970Z,12.50
2017-07-30T08:56:46.627Z,17.43
2017-07-30T09:01:33.645Z,12.27
2017-07-30T09:06:20.506Z,9.87
2017-07-30T09:11:07.902Z,8.10
2017-07-30T09:15:54.513Z,5.40
2017-07-30T09:20:41.152Z,9.67
2017-07-30T09:25:27.894Z,6.90
2017-07-30T09:30:15.297Z,5.90
2017-07-30T09:35:02.212Z,7.53
2017-07-30T09:39:48.829Z,6.00
2017-07-30T09:44:35.490Z,5.13
2017-07-30T09:49:23.128Z,5.63
2017-07-30T09:54:09.745Z,5.37
2017-07-30T09:58:56.377Z,4.93
2017-07-30T10:03:43.265Z,5.07
2017-07-30T10:08:30.048Z,4.47
2017-07-30T10:13:17.964Z,3.60
2017-07-30T10:18:04.614Z,5.03
2017-07-30T10:22:51.976Z,4.60
2017-07-30T10:27:38.735Z,4.70
2017-07-30T10:32:25.560Z,4.03
2017-07-30T10:37:12.224Z,5.03
2017-07-30T10:41:59.754Z,3.93
2017-07-30T10:46:47.368Z,4.13
2017-07-30T10:51:34.036Z,4.60
2017-07-30T10:56:20.706Z,3.07
2017-07-30T11:01:07.363Z,4.33
2017-07-30T11:05:54.759Z,4.50
2017-07-30T11:10:41.414Z,6.20
2017-07-30T11:15:28.846Z,3.47
2017-07-30T11:20:15.498Z,2.70
2017-07-30T11:25:02.144Z,4.03
2017-07-30T11:29:48.781Z,2.93
2017-07-30T11:34:35.478Z,2.63
2017-07-30T11:39:22.645Z,4.53
2017-07-30T11:44:09.232Z,3.03
2017-07-30T11:48:55.857Z,2.40
2017-07-30T11:53:42.495Z,2.17
2017-07-30T11:58:29.153Z,2.30
2017-07-30T12:03:16.524Z,1.80
2017-07-30T12:08:03.153Z,3.00
2017-07-30T12:12:50.228Z,6.40
2017-07-30T12:17:36.836Z,1.93
2017-07-30T12:22:23.528Z,3.20
2017-07-30T12:27:10.271Z,1.70
2017-07-30T12:31:56.934Z,3.60
2017-07-30T12:36:44.309Z,2.50
2017-07-30T12:41:30.961Z,4.77
2017-07-30T12:46:17.601Z,2.93
2017-07-30T12:51:04.970Z,1.80
2017-07-30T12:55:51.621Z,1.67
2017-07-30T13:00:38.269Z,2.13
2017-07-30T13:05:24.875Z,2.63
2017-07-30T13:10:11.517Z,1.80
2017-07-30T13:14:59.244Z,1.90
2017-07-30T13:19:45.895Z,1.80
2017-07-30T13:24:33.307Z,1.80
2017-07-30T13:29:20.014Z,2.33
2017-07-30T13:34:06.666Z,1.80
2017-07-30T13:38:54.057Z,2.07
2017-07-30T13:43:40.693Z,1.53
2017-07-30T13:48:27.629Z,2.20
2017-07-30T13:53:14.278Z,2.17
2017-07-30T13:58:01.828Z,3.00
2017-07-30T14:02:49.205Z,2.30
2017-07-30T14:07:35.831Z,3.80
2017-07-30T14:12:22.435Z,2.73
2017-07-30T14:17:09.406Z,2.43
2017-07-30T14:21:56.022Z,5.50
2017-07-30T14:26:42.932Z,2.77
2017-07-30T14:31:29.595Z,2.57
2017-07-30T14:36:16.958Z,2.60
2017-07-30T14:41:03.606Z,2.50
2017-07-30T14:45:50.550Z,2.97
2017-07-30T14:50:37.170Z,2.50
2017-07-30T14:55:23.878Z,2.33
2017-07-30T15:00:10.601Z,2.37
2017-07-30T15:04:57.254Z,4.93
2017-07-30T15:09:44.586Z,2.43
2017-07-30T15:14:31.380Z,3.13
2017-07-30T15:19:18.730Z,2.10
2017-07-30T15:24:07.079Z,2.53
2017-07-30T15:28:53.752Z,2.33
2017-07-30T15:33:40.380Z,2.20
2017-07-30T15:38:27.253Z,2.47
2017-07-30T15:43:13.919Z,2.60
2017-07-30T15:48:00.560Z,2.37
2017-07-30T15:52:47.516Z,2.40
2017-07-30T15:57:34.136Z,2.20
2017-07-30T16:02:20.812Z,2.60
2017-07-30T16:07:07.456Z,2.70
2017-07-30T16:11:54.085Z,2.70
2017-07-30T16:16:41.034Z,3.27
2017-07-30T16:21:27.653Z,3.17
2017-07-30T16:26:14.292Z,2.60
2017-07-30T16:31:01.647Z,2.50
2017-07-30T16:35:48.320Z,2.20
2017-07-30T16:40:35.161Z,4.30
2017-07-30T16:45:21.836Z,2.70
2017-07-30T16:50:08.493Z,3.00
2017-07-30T16:54:55.436Z,2.53
2017-07-30T16:59:42.079Z,2.87
2017-07-30T17:04:29.464Z,2.10
2017-07-30T17:09:16.402Z,2.10
2017-07-30T17:14:03.008Z,2.90
2017-07-30T17:18:49.649Z,2.00
2017-07-30T17:23:36.302Z,2.37
2017-07-30T17:28:23.688Z,2.60
2017-07-30T17:33:10.339Z,2.33
2017-07-30T17:37:57.262Z,5.73
2017-07-30T17:42:43.974Z,2.67
2017-07-30T17:47:30.625Z,2.63
2017-07-30T17:52:18.065Z,3.37
2017-07-30T17:57:05.458Z,4.43
2017-07-30T18:01:52.494Z,9.07
2017-07-30T18:06:39.205Z,6.60
2017-07-30T18:11:25.883Z,4.50
2017-07-30T18:16:12.547Z,7.10
2017-07-30T18:20:59.192Z,5.30
2017-07-30T18:25:46.808Z,5.93
2017-07-30T18:30:33.740Z,8.10
2017-07-30T18:35:20.519Z,7.20
2017-07-30T18:40:07.213Z,4.90
2017-07-30T18:44:53.915Z,7.70
2017-07-30T18:49:40.604Z,12.10
2017-07-30T18:54:27.322Z,28.63
2017-07-30T18:59:14.029Z,9.90
2017-07-30T19:04:00.724Z,8.97
2017-07-30T19:08:48.434Z,8.80
2017-07-30T19:13:35.217Z,5.60
2017-07-30T19:18:21.951Z,13.60
2017-07-30T19:23:08.771Z,4.87
2017-07-30T19:27:55.502Z,11.00
2017-07-30T19:32:42.213Z,16.10
2017-07-30T19:37:29.381Z,6.53
2017-07-30T19:42:16.091Z,8.67
2017-07-30T19:47:02.898Z,13.60
2017-07-30T19:51:49.783Z,22.30
2017-07-30T19:56:36.688Z,15.13
2017-07-30T20:01:23.449Z,12.30
2017-07-30T20:06:10.893Z,14.43
2017-07-30T20:10:57.545Z,13.13
2017-07-30T20:15:44.261Z,8.10
2017-07-30T20:20:30.947Z,13.47
2017-07-30T20:25:18.449Z,12.00
2017-07-30T20:30:05.135Z,8.13
2017-07-30T20:34:51.837Z,7.87
2017-07-30T20:39:39.546Z,10.87
2017-07-30T20:44:26.260Z,14.57
2017-07-30T20:49:12.916Z,7.50
2017-07-30T20:53:59.637Z,6.37
2017-07-30T20:58:47.050Z,10.23
2017-07-30T21:03:33.746Z,7.47
2017-07-30T21:08:20.388Z,6.03
2017-07-30T21:13:07.057Z,10.70
2017-07-30T21:17:54.433Z,11.60
2017-07-30T21:22:41.062Z,9.20
2017-07-30T21:27:27.761Z,4.37
2017-07-30T21:32:14.372Z,13.23
2017-07-30T21:37:01.051Z,8.13
2017-07-30T21:41:47.702Z,8.00
2017-07-30T21:46:34.333Z,9.73
2017-07-30T21:51:20.991Z,12.40
2017-07-30T21:56:07.618Z,4.43
2017-07-30T22:00:54.265Z,4.90
2017-07-30T22:05:41.697Z,8.17
2017-07-30T22:10:28.441Z,11.40
2017-07-30T22:15:15.813Z,5.97
2017-07-30T22:20:02.449Z,8.33
2017-07-30T22:24:49.092Z,7.20
2017-07-30T22:29:35.735Z,13.67
2017-07-30T22:34:23.125Z,5.97
2017-07-30T22:39:09.756Z,9.47
2017-07-30T22:43:56.416Z,9.53
2017-07-30T22:48:43.757Z,5.30
2017-07-30T22:53:30.444Z,18.70
2017-07-30T22:58:17.164Z,12.13
2017-07-30T23:03:03.805Z,6.50
2017-07-30T23:07:51.206Z,13.90
2017-07-30T23:12:37.845Z,7.90
2017-07-30T23:17:24.480Z,10.63
2017-07-30T23:22:11.092Z,11.80
2017-07-30T23:26:57.754Z,13.87
2017-07-30T23:31:44.418Z,7.80
2017-07-30T23:36:31.065Z,8.10
2017-07-30T23:41:18.432Z,12.00
2017-07-30T23:46:05.119Z,12.70
2017-07-30T23:50:52.414Z,7.97
2017-07-30T23:55:39.050Z,11.83
